Copen, West Virginia
Current Conditions -  °F | °C
As of 12:55 PM on Friday 21 Nov 2014 (Local Time) from KW22 Reporting Station
Clear Clear  
Wind Chill: 20°   Ceiling: Unl
Heat Index: 28°   Visibility: 10mi
Dew Point:   Wind: 9mph
Humidity: 40%   Direction: 250°WSW
Pressure: 30.43"   Gusts: 16mph
Location:  38.83°N, 80.73°W
Report Text: KW22 211755Z AUTO 25008G14KT 220V280 10SM CLR M02/M14 A3043 RMK AO2
Loading
Personal Weather Stations






























Interactive Weather Map New forecast layout! Learn more

10-Day Weather Forecast

Advertisements
Track Severe Weather on mobile